sensor_id;sensor_type;location;lat;lon;timestamp;temperature;humidity
7411;DHT22;3747;48.628;9.058;2022-12-20T00:02:22;2.60;99.90
7411;DHT22;3747;48.628;9.058;2022-12-20T00:04:49;2.60;99.90
7411;DHT22;3747;48.628;9.058;2022-12-20T00:07:16;2.60;99.90
7411;DHT22;3747;48.628;9.058;2022-12-20T00:09:43;2.70;99.90
7411;DHT22;3747;48.628;9.058;2022-12-20T00:12:09;2.60;99.90
7411;DHT22;3747;48.628;9.058;2022-12-20T00:14:36;2.50;99.90
7411;DHT22;3747;48.628;9.058;2022-12-20T00:17:04;2.40;99.90
7411;DHT22;3747;48.628;9.058;2022-12-20T00:19:31;2.40;99.90
7411;DHT22;3747;48.628;9.058;2022-12-20T00:21:57;2.30;99.90
7411;DHT22;3747;48.628;9.058;2022-12-20T00:24:24;2.30;99.90
7411;DHT22;3747;48.628;9.058;2022-12-20T00:26:51;2.30;99.90
7411;DHT22;3747;48.628;9.058;2022-12-20T00:29:18;2.30;99.90
7411;DHT22;3747;48.628;9.058;2022-12-20T00:31:44;2.30;99.90
7411;DHT22;3747;48.628;9.058;2022-12-20T00:34:12;2.20;99.90
7411;DHT22;3747;48.628;9.058;2022-12-20T00:36:39;2.10;99.90
7411;DHT22;3747;48.628;9.058;2022-12-20T00:39:06;2.10;99.90
7411;DHT22;3747;48.628;9.058;2022-12-20T00:41:33;2.30;99.90
7411;DHT22;3747;48.628;9.058;2022-12-20T00:44:00;2.30;99.90
7411;DHT22;3747;48.628;9.058;2022-12-20T00:46:29;2.30;99.90
7411;DHT22;3747;48.628;9.058;2022-12-20T00:48:56;2.30;99.90
7411;DHT22;3747;48.628;9.058;2022-12-20T00:51:26;2.40;99.90
7411;DHT22;3747;48.628;9.058;2022-12-20T00:53:53;2.60;99.90
7411;DHT22;3747;48.628;9.058;2022-12-20T00:56:21;2.70;99.90
7411;DHT22;3747;48.628;9.058;2022-12-20T00:58:48;2.70;99.90
7411;DHT22;3747;48.628;9.058;2022-12-20T01:01:18;2.70;99.90
7411;DHT22;3747;48.628;9.058;2022-12-20T01:03:45;2.70;99.90
7411;DHT22;3747;48.628;9.058;2022-12-20T01:06:12;2.80;99.90
7411;DHT22;3747;48.628;9.058;2022-12-20T01:08:40;2.90;99.90
7411;DHT22;3747;48.628;9.058;2022-12-20T01:11:10;2.80;99.90
7411;DHT22;3747;48.628;9.058;2022-12-20T01:13:39;2.80;99.90
7411;DHT22;3747;48.628;9.058;2022-12-20T01:16:08;2.80;99.90
7411;DHT22;3747;48.628;9.058;2022-12-20T01:18:35;2.80;99.90
7411;DHT22;3747;48.628;9.058;2022-12-20T01:21:03;2.90;99.90
7411;DHT22;3747;48.628;9.058;2022-12-20T01:23:30;3.00;99.90
7411;DHT22;3747;48.628;9.058;2022-12-20T01:25:59;3.00;99.90
7411;DHT22;3747;48.628;9.058;2022-12-20T01:28:28;3.10;99.90
7411;DHT22;3747;48.628;9.058;2022-12-20T01:30:55;3.10;99.90
7411;DHT22;3747;48.628;9.058;2022-12-20T01:33:22;3.20;99.90
7411;DHT22;3747;48.628;9.058;2022-12-20T01:35:56;3.20;99.90
7411;DHT22;3747;48.628;9.058;2022-12-20T01:38:23;3.30;99.90
7411;DHT22;3747;48.628;9.058;2022-12-20T01:40:50;3.40;99.90
7411;DHT22;3747;48.628;9.058;2022-12-20T01:43:20;3.40;99.90
7411;DHT22;3747;48.628;9.058;2022-12-20T01:45:47;3.40;99.90
7411;DHT22;3747;48.628;9.058;2022-12-20T01:48:15;3.60;99.90
7411;DHT22;3747;48.628;9.058;2022-12-20T01:50:44;3.80;99.90
7411;DHT22;3747;48.628;9.058;2022-12-20T01:53:11;4.00;99.90
7411;DHT22;3747;48.628;9.058;2022-12-20T01:55:38;4.00;99.90
7411;DHT22;3747;48.628;9.058;2022-12-20T01:58:07;3.90;99.90
7411;DHT22;3747;48.628;9.058;2022-12-20T02:00:35;3.90;99.90
7411;DHT22;3747;48.628;9.058;2022-12-20T02:03:04;3.70;99.90
7411;DHT22;3747;48.628;9.058;2022-12-20T02:05:34;3.70;99.90
7411;DHT22;3747;48.628;9.058;2022-12-20T02:08:02;3.60;99.90
7411;DHT22;3747;48.628;9.058;2022-12-20T02:10:53;3.50;99.90
7411;DHT22;3747;48.628;9.058;2022-12-20T02:13:31;3.30;99.90
7411;DHT22;3747;48.628;9.058;2022-12-20T02:16:04;3.20;99.90
7411;DHT22;3747;48.628;9.058;2022-12-20T02:18:36;3.30;99.90
7411;DHT22;3747;48.628;9.058;2022-12-20T02:21:24;3.20;99.90
7411;DHT22;3747;48.628;9.058;2022-12-20T02:24:25;3.10;99.90
7411;DHT22;3747;48.628;9.058;2022-12-20T02:27:16;3.20;99.90
7411;DHT22;3747;48.628;9.058;2022-12-20T02:30:15;3.00;99.90
7411;DHT22;3747;48.628;9.058;2022-12-20T02:32:47;2.90;99.90
7411;DHT22;3747;48.628;9.058;2022-12-20T02:35:20;2.80;99.90
7411;DHT22;3747;48.628;9.058;2022-12-20T02:37:49;2.80;99.90
7411;DHT22;3747;48.628;9.058;2022-12-20T02:40:20;2.80;99.90
7411;DHT22;3747;48.628;9.058;2022-12-20T02:42:49;2.80;99.90
7411;DHT22;3747;48.628;9.058;2022-12-20T02:45:20;2.90;99.90
7411;DHT22;3747;48.628;9.058;2022-12-20T02:47:50;3.00;99.90
7411;DHT22;3747;48.628;9.058;2022-12-20T02:50:21;3.10;99.90
7411;DHT22;3747;48.628;9.058;2022-12-20T02:52:50;3.20;99.90
7411;DHT22;3747;48.628;9.058;2022-12-20T02:55:17;3.20;99.90
7411;DHT22;3747;48.628;9.058;2022-12-20T02:57:49;3.10;99.90
7411;DHT22;3747;48.628;9.058;2022-12-20T03:00:19;3.00;99.90
7411;DHT22;3747;48.628;9.058;2022-12-20T03:02:48;2.90;99.90
7411;DHT22;3747;48.628;9.058;2022-12-20T03:05:38;2.90;99.90
7411;DHT22;3747;48.628;9.058;2022-12-20T03:08:08;3.10;99.90
7411;DHT22;3747;48.628;9.058;2022-12-20T03:10:36;3.20;99.90
7411;DHT22;3747;48.628;9.058;2022-12-20T03:13:03;3.10;99.90
7411;DHT22;3747;48.628;9.058;2022-12-20T03:15:31;3.00;99.90
7411;DHT22;3747;48.628;9.058;2022-12-20T03:17:58;3.00;99.90
7411;DHT22;3747;48.628;9.058;2022-12-20T03:20:24;2.90;99.90
7411;DHT22;3747;48.628;9.058;2022-12-20T03:22:51;2.90;99.90
7411;DHT22;3747;48.628;9.058;2022-12-20T03:25:18;2.90;99.90
7411;DHT22;3747;48.628;9.058;2022-12-20T03:27:45;2.80;99.90
7411;DHT22;3747;48.628;9.058;2022-12-20T03:30:13;2.70;99.90
7411;DHT22;3747;48.628;9.058;2022-12-20T03:32:41;2.80;99.90
7411;DHT22;3747;48.628;9.058;2022-12-20T03:35:08;2.80;99.90
7411;DHT22;3747;48.628;9.058;2022-12-20T03:37:35;2.70;99.90
7411;DHT22;3747;48.628;9.058;2022-12-20T03:40:03;2.70;99.90
7411;DHT22;3747;48.628;9.058;2022-12-20T03:42:30;2.60;99.90
7411;DHT22;3747;48.628;9.058;2022-12-20T03:44:56;2.70;99.90
7411;DHT22;3747;48.628;9.058;2022-12-20T03:47:23;2.60;99.90
7411;DHT22;3747;48.628;9.058;2022-12-20T03:49:51;2.60;99.90
7411;DHT22;3747;48.628;9.058;2022-12-20T03:52:18;2.50;99.90
7411;DHT22;3747;48.628;9.058;2022-12-20T03:54:45;2.40;99.90
7411;DHT22;3747;48.628;9.058;2022-12-20T03:57:11;2.20;99.90
7411;DHT22;3747;48.628;9.058;2022-12-20T03:59:38;2.20;99.90
7411;DHT22;3747;48.628;9.058;2022-12-20T04:02:05;2.20;99.90
7411;DHT22;3747;48.628;9.058;2022-12-20T04:04:32;2.30;99.90
7411;DHT22;3747;48.628;9.058;2022-12-20T04:07:00;2.40;99.90
7411;DHT22;3747;48.628;9.058;2022-12-20T04:09:27;2.50;99.90
7411;DHT22;3747;48.628;9.058;2022-12-20T04:11:53;2.40;99.90
7411;DHT22;3747;48.628;9.058;2022-12-20T04:14:20;2.40;99.90
7411;DHT22;3747;48.628;9.058;2022-12-20T04:16:47;2.40;99.90
7411;DHT22;3747;48.628;9.058;2022-12-20T04:19:14;2.40;99.90
7411;DHT22;3747;48.628;9.058;2022-12-20T04:21:40;2.50;99.90
7411;DHT22;3747;48.628;9.058;2022-12-20T04:24:08;2.50;99.90
7411;DHT22;3747;48.628;9.058;2022-12-20T04:26:36;2.60;99.90
7411;DHT22;3747;48.628;9.058;2022-12-20T04:29:03;2.70;99.90
7411;DHT22;3747;48.628;9.058;2022-12-20T04:31:29;3.00;99.90
7411;DHT22;3747;48.628;9.058;2022-12-20T04:33:56;3.30;99.90
7411;DHT22;3747;48.628;9.058;2022-12-20T04:36:23;3.50;99.90
7411;DHT22;3747;48.628;9.058;2022-12-20T04:38:50;3.70;99.90
7411;DHT22;3747;48.628;9.058;2022-12-20T04:41:18;3.70;99.90
7411;DHT22;3747;48.628;9.058;2022-12-20T04:43:49;3.80;99.90
7411;DHT22;3747;48.628;9.058;2022-12-20T04:46:16;3.70;99.90
7411;DHT22;3747;48.628;9.058;2022-12-20T04:48:43;3.60;99.90
7411;DHT22;3747;48.628;9.058;2022-12-20T04:51:09;3.60;99.90
7411;DHT22;3747;48.628;9.058;2022-12-20T04:53:36;3.50;99.90
7411;DHT22;3747;48.628;9.058;2022-12-20T04:56:19;3.60;99.90
7411;DHT22;3747;48.628;9.058;2022-12-20T04:58:48;3.70;99.90
7411;DHT22;3747;48.628;9.058;2022-12-20T05:01:16;3.70;99.90
7411;DHT22;3747;48.628;9.058;2022-12-20T05:03:43;3.60;99.90
7411;DHT22;3747;48.628;9.058;2022-12-20T05:06:11;3.50;99.90
7411;DHT22;3747;48.628;9.058;2022-12-20T05:08:37;3.60;99.90
7411;DHT22;3747;48.628;9.058;2022-12-20T05:11:05;3.50;99.90
7411;DHT22;3747;48.628;9.058;2022-12-20T05:13:33;3.60;99.90
7411;DHT22;3747;48.628;9.058;2022-12-20T05:16:00;3.60;99.90
7411;DHT22;3747;48.628;9.058;2022-12-20T05:18:27;3.60;99.90
7411;DHT22;3747;48.628;9.058;2022-12-20T05:20:55;3.60;99.90
7411;DHT22;3747;48.628;9.058;2022-12-20T05:23:39;3.60;99.90
7411;DHT22;3747;48.628;9.058;2022-12-20T05:26:25;3.60;99.90
7411;DHT22;3747;48.628;9.058;2022-12-20T05:28:53;3.60;99.90
7411;DHT22;3747;48.628;9.058;2022-12-20T05:31:20;3.70;99.90
7411;DHT22;3747;48.628;9.058;2022-12-20T05:33:46;3.70;99.90
7411;DHT22;3747;48.628;9.058;2022-12-20T05:36:13;3.60;99.90
7411;DHT22;3747;48.628;9.058;2022-12-20T05:38:40;3.50;99.90
7411;DHT22;3747;48.628;9.058;2022-12-20T05:41:07;3.50;99.90
7411;DHT22;3747;48.628;9.058;2022-12-20T05:43:33;3.50;99.90
7411;DHT22;3747;48.628;9.058;2022-12-20T05:46:02;3.40;99.90
7411;DHT22;3747;48.628;9.058;2022-12-20T05:48:29;3.40;99.90
7411;DHT22;3747;48.628;9.058;2022-12-20T05:50:55;3.40;99.90
7411;DHT22;3747;48.628;9.058;2022-12-20T05:53:22;3.40;99.90
7411;DHT22;3747;48.628;9.058;2022-12-20T05:55:50;3.40;99.90
7411;DHT22;3747;48.628;9.058;2022-12-20T05:58:17;3.30;99.90
7411;DHT22;3747;48.628;9.058;2022-12-20T06:00:44;3.30;99.90
7411;DHT22;3747;48.628;9.058;2022-12-20T06:03:13;3.40;99.90
7411;DHT22;3747;48.628;9.058;2022-12-20T06:05:40;3.50;99.90
7411;DHT22;3747;48.628;9.058;2022-12-20T06:08:08;3.50;99.90
7411;DHT22;3747;48.628;9.058;2022-12-20T06:10:35;3.50;99.90
7411;DHT22;3747;48.628;9.058;2022-12-20T06:13:03;3.50;99.90
7411;DHT22;3747;48.628;9.058;2022-12-20T06:15:30;3.50;99.90
7411;DHT22;3747;48.628;9.058;2022-12-20T06:17:57;3.60;99.90
7411;DHT22;3747;48.628;9.058;2022-12-20T06:20:25;3.60;99.90
7411;DHT22;3747;48.628;9.058;2022-12-20T06:22:52;3.60;99.90
7411;DHT22;3747;48.628;9.058;2022-12-20T06:25:18;3.60;99.90
7411;DHT22;3747;48.628;9.058;2022-12-20T06:27:45;3.70;99.90
7411;DHT22;3747;48.628;9.058;2022-12-20T06:30:13;3.80;99.90
7411;DHT22;3747;48.628;9.058;2022-12-20T06:32:39;3.90;99.90
7411;DHT22;3747;48.628;9.058;2022-12-20T06:35:07;4.00;99.90
7411;DHT22;3747;48.628;9.058;2022-12-20T06:37:35;4.30;99.90
7411;DHT22;3747;48.628;9.058;2022-12-20T06:40:05;4.70;99.90
7411;DHT22;3747;48.628;9.058;2022-12-20T06:42:32;4.90;99.90
7411;DHT22;3747;48.628;9.058;2022-12-20T06:44:58;5.00;99.90
7411;DHT22;3747;48.628;9.058;2022-12-20T06:47:25;5.20;99.90
7411;DHT22;3747;48.628;9.058;2022-12-20T06:49:52;5.40;99.90
7411;DHT22;3747;48.628;9.058;2022-12-20T06:52:18;5.60;99.90
7411;DHT22;3747;48.628;9.058;2022-12-20T06:54:47;5.60;99.90
7411;DHT22;3747;48.628;9.058;2022-12-20T06:57:14;5.70;99.90
7411;DHT22;3747;48.628;9.058;2022-12-20T06:59:40;5.70;99.90
7411;DHT22;3747;48.628;9.058;2022-12-20T07:02:08;5.70;99.90
7411;DHT22;3747;48.628;9.058;2022-12-20T07:04:35;5.60;99.90
7411;DHT22;3747;48.628;9.058;2022-12-20T07:07:03;5.60;99.90
7411;DHT22;3747;48.628;9.058;2022-12-20T07:09:30;5.70;99.90
7411;DHT22;3747;48.628;9.058;2022-12-20T07:11:58;5.80;99.90
7411;DHT22;3747;48.628;9.058;2022-12-20T07:14:25;5.80;99.90
7411;DHT22;3747;48.628;9.058;2022-12-20T07:16:52;5.80;99.90
7411;DHT22;3747;48.628;9.058;2022-12-20T07:19:19;5.80;99.90
7411;DHT22;3747;48.628;9.058;2022-12-20T07:21:46;5.80;99.90
7411;DHT22;3747;48.628;9.058;2022-12-20T07:24:13;5.80;99.90
7411;DHT22;3747;48.628;9.058;2022-12-20T07:26:40;5.80;99.90
7411;DHT22;3747;48.628;9.058;2022-12-20T07:29:08;5.70;99.90
7411;DHT22;3747;48.628;9.058;2022-12-20T07:31:34;5.90;99.90
7411;DHT22;3747;48.628;9.058;2022-12-20T07:34:01;6.00;99.90
7411;DHT22;3747;48.628;9.058;2022-12-20T07:36:28;6.00;99.90
7411;DHT22;3747;48.628;9.058;2022-12-20T07:38:55;6.00;99.90
7411;DHT22;3747;48.628;9.058;2022-12-20T07:41:21;6.10;99.90
7411;DHT22;3747;48.628;9.058;2022-12-20T07:43:49;6.20;99.90
7411;DHT22;3747;48.628;9.058;2022-12-20T07:46:18;6.40;99.90
7411;DHT22;3747;48.628;9.058;2022-12-20T07:48:44;6.50;99.90
7411;DHT22;3747;48.628;9.058;2022-12-20T07:51:14;6.50;99.90
7411;DHT22;3747;48.628;9.058;2022-12-20T07:53:44;6.60;99.90
7411;DHT22;3747;48.628;9.058;2022-12-20T07:56:14;6.60;99.90
7411;DHT22;3747;48.628;9.058;2022-12-20T07:58:42;6.40;99.90
7411;DHT22;3747;48.628;9.058;2022-12-20T08:01:10;6.40;99.90
7411;DHT22;3747;48.628;9.058;2022-12-20T08:03:42;6.40;99.90
7411;DHT22;3747;48.628;9.058;2022-12-20T08:06:10;6.50;99.90
7411;DHT22;3747;48.628;9.058;2022-12-20T08:08:41;6.60;99.90
7411;DHT22;3747;48.628;9.058;2022-12-20T08:11:09;6.70;99.90
7411;DHT22;3747;48.628;9.058;2022-12-20T08:13:36;6.70;99.90
7411;DHT22;3747;48.628;9.058;2022-12-20T08:16:05;6.70;99.90
7411;DHT22;3747;48.628;9.058;2022-12-20T08:18:32;6.70;99.90
7411;DHT22;3747;48.628;9.058;2022-12-20T08:21:00;6.70;99.90
7411;DHT22;3747;48.628;9.058;2022-12-20T08:23:26;6.70;99.90
7411;DHT22;3747;48.628;9.058;2022-12-20T08:25:53;6.80;99.90
7411;DHT22;3747;48.628;9.058;2022-12-20T08:28:20;6.90;99.90
7411;DHT22;3747;48.628;9.058;2022-12-20T08:30:46;6.90;99.90
7411;DHT22;3747;48.628;9.058;2022-12-20T08:33:13;7.00;99.90
7411;DHT22;3747;48.628;9.058;2022-12-20T08:35:40;6.90;99.90
7411;DHT22;3747;48.628;9.058;2022-12-20T08:38:08;6.80;99.90
7411;DHT22;3747;48.628;9.058;2022-12-20T08:40:35;6.90;99.90
7411;DHT22;3747;48.628;9.058;2022-12-20T08:43:01;7.00;99.90
7411;DHT22;3747;48.628;9.058;2022-12-20T08:45:28;7.10;99.90
7411;DHT22;3747;48.628;9.058;2022-12-20T08:47:55;7.10;99.90
7411;DHT22;3747;48.628;9.058;2022-12-20T08:50:34;7.20;99.90
7411;DHT22;3747;48.628;9.058;2022-12-20T08:53:00;7.40;99.90
7411;DHT22;3747;48.628;9.058;2022-12-20T08:55:28;7.40;99.90
7411;DHT22;3747;48.628;9.058;2022-12-20T08:57:55;7.40;99.90
7411;DHT22;3747;48.628;9.058;2022-12-20T09:00:22;7.40;99.90
7411;DHT22;3747;48.628;9.058;2022-12-20T09:02:49;7.30;99.90
7411;DHT22;3747;48.628;9.058;2022-12-20T09:05:16;7.10;99.90
7411;DHT22;3747;48.628;9.058;2022-12-20T09:07:42;6.90;99.90
7411;DHT22;3747;48.628;9.058;2022-12-20T09:10:10;6.90;99.90
7411;DHT22;3747;48.628;9.058;2022-12-20T09:12:39;6.80;99.90
7411;DHT22;3747;48.628;9.058;2022-12-20T09:15:07;6.80;99.90
7411;DHT22;3747;48.628;9.058;2022-12-20T09:17:34;6.80;99.90
7411;DHT22;3747;48.628;9.058;2022-12-20T09:20:10;6.70;99.90
7411;DHT22;3747;48.628;9.058;2022-12-20T09:22:37;6.60;99.90
7411;DHT22;3747;48.628;9.058;2022-12-20T09:25:05;6.50;99.90
7411;DHT22;3747;48.628;9.058;2022-12-20T09:27:32;6.50;99.90
7411;DHT22;3747;48.628;9.058;2022-12-20T09:30:00;6.50;99.90
7411;DHT22;3747;48.628;9.058;2022-12-20T09:32:27;6.50;99.90
7411;DHT22;3747;48.628;9.058;2022-12-20T09:34:53;6.60;99.90
7411;DHT22;3747;48.628;9.058;2022-12-20T09:37:20;6.80;99.90
7411;DHT22;3747;48.628;9.058;2022-12-20T09:39:47;6.90;99.90
7411;DHT22;3747;48.628;9.058;2022-12-20T09:42:16;7.00;99.90
7411;DHT22;3747;48.628;9.058;2022-12-20T09:45:20;7.10;99.90
7411;DHT22;3747;48.628;9.058;2022-12-20T09:47:47;7.40;99.90
7411;DHT22;3747;48.628;9.058;2022-12-20T09:50:14;7.60;99.90
7411;DHT22;3747;48.628;9.058;2022-12-20T09:53:00;7.90;99.90
7411;DHT22;3747;48.628;9.058;2022-12-20T09:55:33;8.30;99.90
7411;DHT22;3747;48.628;9.058;2022-12-20T09:58:13;8.60;99.90
7411;DHT22;3747;48.628;9.058;2022-12-20T10:00:48;8.80;99.90
7411;DHT22;3747;48.628;9.058;2022-12-20T10:03:19;8.90;99.90
7411;DHT22;3747;48.628;9.058;2022-12-20T10:06:09;8.90;99.90
7411;DHT22;3747;48.628;9.058;2022-12-20T10:08:44;8.70;99.90
7411;DHT22;3747;48.628;9.058;2022-12-20T10:11:27;8.50;99.90
7411;DHT22;3747;48.628;9.058;2022-12-20T10:14:01;8.20;99.90
7411;DHT22;3747;48.628;9.058;2022-12-20T10:16:39;8.00;99.90
7411;DHT22;3747;48.628;9.058;2022-12-20T10:19:18;7.90;99.90
7411;DHT22;3747;48.628;9.058;2022-12-20T10:21:54;7.80;99.90
7411;DHT22;3747;48.628;9.058;2022-12-20T10:24:28;7.70;99.90
7411;DHT22;3747;48.628;9.058;2022-12-20T10:26:56;7.60;99.90
7411;DHT22;3747;48.628;9.058;2022-12-20T10:29:24;7.50;99.90
7411;DHT22;3747;48.628;9.058;2022-12-20T10:31:53;7.40;99.90
7411;DHT22;3747;48.628;9.058;2022-12-20T10:34:24;7.40;99.90
7411;DHT22;3747;48.628;9.058;2022-12-20T10:37:09;7.30;99.90
7411;DHT22;3747;48.628;9.058;2022-12-20T10:39:41;7.30;99.90
7411;DHT22;3747;48.628;9.058;2022-12-20T10:42:23;7.40;99.90
7411;DHT22;3747;48.628;9.058;2022-12-20T10:44:51;7.40;99.90
7411;DHT22;3747;48.628;9.058;2022-12-20T10:47:28;7.50;99.90
7411;DHT22;3747;48.628;9.058;2022-12-20T10:50:17;7.50;99.90
7411;DHT22;3747;48.628;9.058;2022-12-20T10:53:01;7.50;99.90
7411;DHT22;3747;48.628;9.058;2022-12-20T10:55:34;7.50;99.90
7411;DHT22;3747;48.628;9.058;2022-12-20T10:58:14;7.80;99.90
7411;DHT22;3747;48.628;9.058;2022-12-20T11:00:41;7.90;99.90
7411;DHT22;3747;48.628;9.058;2022-12-20T11:03:18;7.80;99.90
7411;DHT22;3747;48.628;9.058;2022-12-20T11:05:56;7.90;99.90
7411;DHT22;3747;48.628;9.058;2022-12-20T11:08:25;8.00;99.90
7411;DHT22;3747;48.628;9.058;2022-12-20T11:11:09;8.00;99.90
7411;DHT22;3747;48.628;9.058;2022-12-20T11:13:38;8.20;99.90
7411;DHT22;3747;48.628;9.058;2022-12-20T11:16:36;8.20;99.90
7411;DHT22;3747;48.628;9.058;2022-12-20T11:19:45;8.10;99.90
7411;DHT22;3747;48.628;9.058;2022-12-20T11:22:26;7.90;99.90
7411;DHT22;3747;48.628;9.058;2022-12-20T11:25:06;7.90;99.90
7411;DHT22;3747;48.628;9.058;2022-12-20T11:27:40;7.90;99.90
7411;DHT22;3747;48.628;9.058;2022-12-20T11:30:16;8.00;99.90
7411;DHT22;3747;48.628;9.058;2022-12-20T11:35:59;8.20;99.90
7411;DHT22;3747;48.628;9.058;2022-12-20T11:38:37;8.50;99.90
7411;DHT22;3747;48.628;9.058;2022-12-20T11:41:15;8.60;99.90
7411;DHT22;3747;48.628;9.058;2022-12-20T11:43:55;8.60;99.90
7411;DHT22;3747;48.628;9.058;2022-12-20T11:46:33;8.70;99.90
7411;DHT22;3747;48.628;9.058;2022-12-20T11:49:33;8.80;99.90
7411;DHT22;3747;48.628;9.058;2022-12-20T11:52:09;8.80;99.90
7411;DHT22;3747;48.628;9.058;2022-12-20T11:54:42;8.80;99.90
7411;DHT22;3747;48.628;9.058;2022-12-20T11:57:17;8.70;99.90
7411;DHT22;3747;48.628;9.058;2022-12-20T11:59:47;8.80;99.90
7411;DHT22;3747;48.628;9.058;2022-12-20T12:02:24;8.80;99.90
7411;DHT22;3747;48.628;9.058;2022-12-20T12:04:55;8.80;99.90
7411;DHT22;3747;48.628;9.058;2022-12-20T12:07:28;8.60;99.90
7411;DHT22;3747;48.628;9.058;2022-12-20T12:10:00;8.60;99.90
7411;DHT22;3747;48.628;9.058;2022-12-20T12:12:31;8.50;99.90
7411;DHT22;3747;48.628;9.058;2022-12-20T12:15:02;8.40;99.90
7411;DHT22;3747;48.628;9.058;2022-12-20T12:17:35;8.30;99.90
7411;DHT22;3747;48.628;9.058;2022-12-20T12:20:17;8.40;99.90
7411;DHT22;3747;48.628;9.058;2022-12-20T12:22:52;8.40;99.90
7411;DHT22;3747;48.628;9.058;2022-12-20T12:25:20;8.40;99.90
7411;DHT22;3747;48.628;9.058;2022-12-20T12:27:47;8.40;99.90
7411;DHT22;3747;48.628;9.058;2022-12-20T12:30:15;8.50;99.90
7411;DHT22;3747;48.628;9.058;2022-12-20T12:32:46;8.40;99.90
7411;DHT22;3747;48.628;9.058;2022-12-20T12:35:36;8.50;99.90
7411;DHT22;3747;48.628;9.058;2022-12-20T12:38:30;8.40;99.90
7411;DHT22;3747;48.628;9.058;2022-12-20T12:41:19;8.50;99.90
7411;DHT22;3747;48.628;9.058;2022-12-20T12:43:52;8.50;99.90
7411;DHT22;3747;48.628;9.058;2022-12-20T12:46:23;8.50;99.90
7411;DHT22;3747;48.628;9.058;2022-12-20T12:49:03;8.50;99.90
7411;DHT22;3747;48.628;9.058;2022-12-20T12:51:33;8.50;99.90
7411;DHT22;3747;48.628;9.058;2022-12-20T12:54:16;8.40;99.90
7411;DHT22;3747;48.628;9.058;2022-12-20T12:56:44;8.40;99.90
7411;DHT22;3747;48.628;9.058;2022-12-20T13:02:50;8.50;99.90
7411;DHT22;3747;48.628;9.058;2022-12-20T13:05:31;8.50;99.90
7411;DHT22;3747;48.628;9.058;2022-12-20T13:07:59;8.60;99.90
7411;DHT22;3747;48.628;9.058;2022-12-20T13:10:56;8.60;99.90
7411;DHT22;3747;48.628;9.058;2022-12-20T13:13:24;8.80;99.90
7411;DHT22;3747;48.628;9.058;2022-12-20T13:16:11;8.60;99.90
7411;DHT22;3747;48.628;9.058;2022-12-20T13:18:56;8.60;99.90
7411;DHT22;3747;48.628;9.058;2022-12-20T13:21:35;8.50;99.90
7411;DHT22;3747;48.628;9.058;2022-12-20T13:24:34;8.40;99.90
7411;DHT22;3747;48.628;9.058;2022-12-20T13:27:13;8.30;99.90
7411;DHT22;3747;48.628;9.058;2022-12-20T13:29:58;8.30;99.90
7411;DHT22;3747;48.628;9.058;2022-12-20T13:35:53;8.20;99.90
7411;DHT22;3747;48.628;9.058;2022-12-20T13:38:48;8.30;99.90
7411;DHT22;3747;48.628;9.058;2022-12-20T13:41:40;8.30;99.90
7411;DHT22;3747;48.628;9.058;2022-12-20T13:44:34;8.30;99.90
7411;DHT22;3747;48.628;9.058;2022-12-20T13:47:06;8.40;99.90
7411;DHT22;3747;48.628;9.058;2022-12-20T13:49:39;8.30;99.90
7411;DHT22;3747;48.628;9.058;2022-12-20T13:52:23;8.20;99.90
7411;DHT22;3747;48.628;9.058;2022-12-20T13:54:54;8.20;99.90
7411;DHT22;3747;48.628;9.058;2022-12-20T13:57:27;8.20;99.90
7411;DHT22;3747;48.628;9.058;2022-12-20T13:59:59;8.30;99.90
7411;DHT22;3747;48.628;9.058;2022-12-20T14:02:28;8.30;99.90
7411;DHT22;3747;48.628;9.058;2022-12-20T14:04:58;8.50;99.90
7411;DHT22;3747;48.628;9.058;2022-12-20T14:07:27;8.60;99.90
7411;DHT22;3747;48.628;9.058;2022-12-20T14:09:56;8.80;99.90
7411;DHT22;3747;48.628;9.058;2022-12-20T14:12:25;9.00;99.90
7411;DHT22;3747;48.628;9.058;2022-12-20T14:14:52;9.20;99.90
7411;DHT22;3747;48.628;9.058;2022-12-20T14:17:24;9.30;99.90
7411;DHT22;3747;48.628;9.058;2022-12-20T14:20:05;9.20;99.90
7411;DHT22;3747;48.628;9.058;2022-12-20T14:22:33;9.20;99.90
7411;DHT22;3747;48.628;9.058;2022-12-20T14:25:03;9.10;99.90
7411;DHT22;3747;48.628;9.058;2022-12-20T14:27:35;9.00;99.90
7411;DHT22;3747;48.628;9.058;2022-12-20T14:30:03;8.90;99.90
7411;DHT22;3747;48.628;9.058;2022-12-20T14:32:32;8.80;99.90
7411;DHT22;3747;48.628;9.058;2022-12-20T14:34:59;8.80;99.90
7411;DHT22;3747;48.628;9.058;2022-12-20T14:37:29;8.80;99.90
7411;DHT22;3747;48.628;9.058;2022-12-20T14:39:58;8.70;99.90
7411;DHT22;3747;48.628;9.058;2022-12-20T14:42:28;8.60;99.90
7411;DHT22;3747;48.628;9.058;2022-12-20T14:45:06;8.50;99.90
7411;DHT22;3747;48.628;9.058;2022-12-20T14:47:58;8.40;99.90
7411;DHT22;3747;48.628;9.058;2022-12-20T14:50:29;8.20;99.90
7411;DHT22;3747;48.628;9.058;2022-12-20T14:52:57;8.20;99.90
7411;DHT22;3747;48.628;9.058;2022-12-20T14:55:32;8.10;99.90
7411;DHT22;3747;48.628;9.058;2022-12-20T14:58:05;8.10;99.90
7411;DHT22;3747;48.628;9.058;2022-12-20T15:00:33;8.10;99.90
7411;DHT22;3747;48.628;9.058;2022-12-20T15:03:10;7.90;99.90
7411;DHT22;3747;48.628;9.058;2022-12-20T15:05:47;7.70;99.90
7411;DHT22;3747;48.628;9.058;2022-12-20T15:08:16;7.60;99.90
7411;DHT22;3747;48.628;9.058;2022-12-20T15:10:51;7.50;99.90
7411;DHT22;3747;48.628;9.058;2022-12-20T15:13:20;7.40;99.90
7411;DHT22;3747;48.628;9.058;2022-12-20T15:15:47;7.20;99.90
7411;DHT22;3747;48.628;9.058;2022-12-20T15:18:17;7.10;99.90
7411;DHT22;3747;48.628;9.058;2022-12-20T15:20:46;7.00;99.90
7411;DHT22;3747;48.628;9.058;2022-12-20T15:23:15;7.00;99.90
7411;DHT22;3747;48.628;9.058;2022-12-20T15:25:42;6.90;99.90
7411;DHT22;3747;48.628;9.058;2022-12-20T15:28:14;6.90;99.90
7411;DHT22;3747;48.628;9.058;2022-12-20T15:30:41;6.90;99.90
7411;DHT22;3747;48.628;9.058;2022-12-20T15:33:14;6.80;99.90
7411;DHT22;3747;48.628;9.058;2022-12-20T15:35:45;6.80;99.90
7411;DHT22;3747;48.628;9.058;2022-12-20T15:38:14;6.80;99.90
7411;DHT22;3747;48.628;9.058;2022-12-20T15:40:42;6.80;99.90
7411;DHT22;3747;48.628;9.058;2022-12-20T15:43:11;6.80;99.90
7411;DHT22;3747;48.628;9.058;2022-12-20T15:45:39;6.70;99.90
7411;DHT22;3747;48.628;9.058;2022-12-20T15:48:12;6.90;99.90
7411;DHT22;3747;48.628;9.058;2022-12-20T15:50:39;7.10;99.90
7411;DHT22;3747;48.628;9.058;2022-12-20T15:53:12;7.10;99.90
7411;DHT22;3747;48.628;9.058;2022-12-20T15:55:39;7.10;99.90
7411;DHT22;3747;48.628;9.058;2022-12-20T15:58:07;7.20;99.90
7411;DHT22;3747;48.628;9.058;2022-12-20T16:00:36;7.20;99.90
7411;DHT22;3747;48.628;9.058;2022-12-20T16:03:06;7.30;99.90
7411;DHT22;3747;48.628;9.058;2022-12-20T16:05:33;7.30;99.90
7411;DHT22;3747;48.628;9.058;2022-12-20T16:08:17;7.30;99.90
7411;DHT22;3747;48.628;9.058;2022-12-20T16:10:44;7.30;99.90
7411;DHT22;3747;48.628;9.058;2022-12-20T16:13:15;7.30;99.90
7411;DHT22;3747;48.628;9.058;2022-12-20T16:15:42;7.30;99.90
7411;DHT22;3747;48.628;9.058;2022-12-20T16:18:09;7.10;99.90
7411;DHT22;3747;48.628;9.058;2022-12-20T16:20:35;6.90;99.90
7411;DHT22;3747;48.628;9.058;2022-12-20T16:23:03;6.80;99.90
7411;DHT22;3747;48.628;9.058;2022-12-20T16:25:34;6.90;99.90
7411;DHT22;3747;48.628;9.058;2022-12-20T16:28:02;7.00;99.90
7411;DHT22;3747;48.628;9.058;2022-12-20T16:30:28;7.10;99.90
7411;DHT22;3747;48.628;9.058;2022-12-20T16:32:55;7.20;99.90
7411;DHT22;3747;48.628;9.058;2022-12-20T16:35:35;7.30;99.90
7411;DHT22;3747;48.628;9.058;2022-12-20T16:38:18;7.50;99.90
7411;DHT22;3747;48.628;9.058;2022-12-20T16:40:46;7.60;99.90
7411;DHT22;3747;48.628;9.058;2022-12-20T16:43:14;7.70;99.90
7411;DHT22;3747;48.628;9.058;2022-12-20T16:45:42;7.60;99.90
7411;DHT22;3747;48.628;9.058;2022-12-20T16:48:09;7.70;99.90
7411;DHT22;3747;48.628;9.058;2022-12-20T16:50:36;7.70;99.90
7411;DHT22;3747;48.628;9.058;2022-12-20T16:53:11;7.80;99.90